createdAt,value
2022-11-07T00:02:04.612Z,95551.00
2022-11-07T00:06:09.345Z,95560.00
2022-11-07T00:10:12.084Z,95561.00
2022-11-07T00:14:16.809Z,95574.00
2022-11-07T00:18:19.549Z,95571.00
2022-11-07T00:22:23.844Z,95575.00
2022-11-07T00:26:26.705Z,95586.00
2022-11-07T00:30:29.401Z,95579.00
2022-11-07T00:34:35.137Z,95596.00
2022-11-07T00:38:39.193Z,95592.00
2022-11-07T00:42:41.922Z,95592.00
2022-11-07T00:46:44.825Z,95588.00
2022-11-07T00:50:48.214Z,95597.00
2022-11-07T00:54:52.286Z,95603.00
2022-11-07T00:58:56.097Z,95610.00
2022-11-07T01:03:13.036Z,95622.00
2022-11-07T01:07:16.038Z,95628.00
2022-11-07T01:11:20.143Z,95631.00
2022-11-07T01:15:22.937Z,95624.00
2022-11-07T01:19:25.679Z,95629.00
2022-11-07T01:23:28.375Z,95629.00
2022-11-07T01:27:32.517Z,95636.00
2022-11-07T01:31:35.820Z,95635.00
2022-11-07T01:35:38.995Z,95649.00
2022-11-07T01:39:41.814Z,95636.00
2022-11-07T01:43:48.528Z,95649.00
2022-11-07T01:47:53.703Z,95637.00
2022-11-07T01:52:00.373Z,95639.00
2022-11-07T01:56:03.653Z,95637.00
2022-11-07T02:00:10.868Z,95650.00
2022-11-07T02:04:14.949Z,95645.00
2022-11-07T02:08:18.440Z,95638.00
2022-11-07T02:12:24.042Z,95642.00
2022-11-07T02:16:28.351Z,95644.00
2022-11-07T02:20:31.146Z,95647.00
2022-11-07T02:24:36.833Z,95645.00
2022-11-07T02:28:41.866Z,95641.00
2022-11-07T02:32:45.085Z,95644.00
2022-11-07T02:36:47.814Z,95646.00
2022-11-07T02:40:55.393Z,95638.00
2022-11-07T02:44:58.202Z,95652.00
2022-11-07T02:49:02.492Z,95648.00
2022-11-07T02:53:05.280Z,95647.00
2022-11-07T02:57:09.332Z,95645.00
2022-11-07T03:01:12.586Z,95635.00
2022-11-07T03:05:16.308Z,95629.00
2022-11-07T03:09:19.016Z,95645.00
2022-11-07T03:13:23.525Z,95651.00
2022-11-07T03:17:26.256Z,95657.00
2022-11-07T03:21:29.046Z,95653.00
2022-11-07T03:25:31.786Z,95658.00
2022-11-07T03:29:35.899Z,95658.00
2022-11-07T03:33:38.633Z,95663.00
2022-11-07T03:37:41.411Z,95655.00
2022-11-07T03:41:44.105Z,95657.00
2022-11-07T03:45:48.210Z,95653.00
2022-11-07T03:49:50.901Z,95659.00
2022-11-07T03:53:53.621Z,95672.00
2022-11-07T03:57:56.483Z,95679.00
2022-11-07T04:02:00.698Z,95675.00
2022-11-07T04:06:03.520Z,95676.00
2022-11-07T04:10:06.939Z,95670.00
2022-11-07T04:14:23.566Z,95670.00
2022-11-07T04:18:27.738Z,95684.00
2022-11-07T04:22:30.493Z,95687.00
2022-11-07T04:26:53.184Z,95679.00
2022-11-07T04:30:55.908Z,95692.00
2022-11-07T04:34:59.996Z,95694.00
2022-11-07T04:39:02.744Z,95675.00
2022-11-07T04:43:09.147Z,95687.00
2022-11-07T04:47:11.902Z,95684.00
2022-11-07T04:51:19.691Z,95689.00
2022-11-07T04:55:30.505Z,95691.00
2022-11-07T04:59:33.426Z,95682.00
2022-11-07T05:03:41.313Z,95689.00
2022-11-07T05:07:46.611Z,95695.00
2022-11-07T05:11:49.914Z,95695.00
2022-11-07T05:15:53.290Z,95707.00
2022-11-07T05:19:56.001Z,95697.00
2022-11-07T05:24:00.143Z,95707.00
2022-11-07T05:28:02.858Z,95715.00
2022-11-07T05:32:06.097Z,95722.00
2022-11-07T05:36:14.539Z,95722.00
2022-11-07T05:40:18.659Z,95720.00
2022-11-07T05:44:21.381Z,95723.00
2022-11-07T05:48:24.088Z,95720.00
2022-11-07T05:52:26.870Z,95724.00
2022-11-07T05:56:30.946Z,95732.00
2022-11-07T06:00:33.661Z,95719.00
2022-11-07T06:04:36.385Z,95721.00
2022-11-07T06:08:39.073Z,95726.00
2022-11-07T06:12:43.242Z,95729.00
2022-11-07T06:16:45.965Z,95725.00
2022-11-07T06:20:48.689Z,95736.00
2022-11-07T06:24:51.466Z,95741.00
2022-11-07T06:28:55.594Z,95738.00
2022-11-07T06:33:01.688Z,95739.00
2022-11-07T06:37:04.428Z,95739.00
2022-11-07T06:41:08.576Z,95754.00
2022-11-07T06:45:13.106Z,95748.00
2022-11-07T06:49:16.513Z,95748.00
2022-11-07T06:53:19.526Z,95759.00
2022-11-07T06:57:22.517Z,95763.00
2022-11-07T07:01:26.678Z,95762.00
2022-11-07T07:05:29.550Z,95761.00
2022-11-07T07:09:33.109Z,95768.00
2022-11-07T07:13:36.677Z,95764.00
2022-11-07T07:17:40.759Z,95772.00
2022-11-07T07:21:43.461Z,95778.00
2022-11-07T07:25:46.293Z,95780.00
2022-11-07T07:29:49.001Z,95772.00
2022-11-07T07:33:53.358Z,95783.00
2022-11-07T07:37:56.112Z,95784.00
2022-11-07T07:41:58.855Z,95789.00
2022-11-07T07:46:02.463Z,95772.00
2022-11-07T07:50:07.833Z,95779.00
2022-11-07T07:54:12.402Z,95779.00
2022-11-07T07:58:15.366Z,95788.00
2022-11-07T08:02:18.348Z,95776.00
2022-11-07T08:06:22.468Z,95778.00
2022-11-07T08:10:41.476Z,95783.00
2022-11-07T08:14:45.423Z,95792.00
2022-11-07T08:18:48.204Z,95788.00
2022-11-07T08:22:52.285Z,95798.00
2022-11-07T08:26:55.014Z,95807.00
2022-11-07T08:30:59.426Z,95809.00
2022-11-07T08:35:02.196Z,95808.00
2022-11-07T08:39:06.298Z,95813.00
2022-11-07T08:43:09.031Z,95808.00
2022-11-07T08:47:11.754Z,95798.00
2022-11-07T08:51:14.527Z,95810.00
2022-11-07T08:55:18.742Z,95813.00
2022-11-07T08:59:22.887Z,95822.00
2022-11-07T09:07:48.505Z,95821.00
2022-11-07T09:11:52.594Z,95824.00
2022-11-07T09:15:57.986Z,95823.00
2022-11-07T09:20:00.690Z,95819.00
2022-11-07T09:24:03.389Z,95824.00
2022-11-07T09:28:07.804Z,95828.00
2022-11-07T09:32:38.154Z,95834.00
2022-11-07T09:36:33.213Z,95832.00
2022-11-07T09:40:49.720Z,95841.00
2022-11-07T09:44:58.048Z,95844.00
2022-11-07T09:49:04.971Z,95845.00
2022-11-07T09:53:13.282Z,95849.00
2022-11-07T09:57:18.433Z,95841.00
2022-11-07T10:01:23.141Z,95855.00
2022-11-07T10:05:38.906Z,95857.00
2022-11-07T10:09:50.503Z,95857.00
2022-11-07T10:14:02.572Z,95855.00
2022-11-07T10:18:17.323Z,95853.00
2022-11-07T10:22:34.652Z,95865.00
2022-11-07T10:26:38.282Z,95858.00
2022-11-07T10:30:43.170Z,95862.00
2022-11-07T10:34:54.374Z,95863.00
2022-11-07T10:38:58.376Z,95851.00
2022-11-07T10:43:04.214Z,95864.00
2022-11-07T10:47:16.767Z,95862.00
2022-11-07T10:51:20.825Z,95859.00
2022-11-07T10:55:24.708Z,95861.00
2022-11-07T10:59:35.619Z,95867.00
2022-11-07T11:03:44.759Z,95865.00
2022-11-07T11:07:49.429Z,95866.00
2022-11-07T11:11:53.107Z,95862.00
2022-11-07T11:15:59.049Z,95858.00
2022-11-07T11:20:08.040Z,95851.00
2022-11-07T11:24:22.918Z,95855.00
2022-11-07T11:28:30.964Z,95859.00
2022-11-07T11:32:38.866Z,95848.00
2022-11-07T11:36:48.501Z,95844.00
2022-11-07T11:41:04.683Z,95845.00
2022-11-07T11:45:17.174Z,95833.00
2022-11-07T11:49:23.830Z,95830.00
2022-11-07T11:53:26.818Z,95833.00
2022-11-07T11:57:41.664Z,95823.00
2022-11-07T12:01:49.052Z,95829.00
2022-11-07T12:06:12.968Z,95810.00
2022-11-07T12:10:23.084Z,95825.00
2022-11-07T12:14:57.321Z,95820.00
2022-11-07T12:19:12.105Z,95819.00
2022-11-07T12:23:26.746Z,95809.00
2022-11-07T12:27:35.657Z,95818.00
2022-11-07T12:31:54.454Z,95816.00
2022-11-07T12:36:03.256Z,95814.00
2022-11-07T12:40:24.017Z,95815.00
2022-11-07T12:44:45.176Z,95804.00
2022-11-07T12:49:22.088Z,95809.00
2022-11-07T12:53:35.423Z,95806.00
2022-11-07T12:57:39.520Z,95805.00
2022-11-07T13:01:46.566Z,95795.00
2022-11-07T13:06:00.829Z,95805.00
2022-11-07T13:10:08.894Z,95811.00
2022-11-07T13:14:24.453Z,95809.00
2022-11-07T13:18:28.673Z,95806.00
2022-11-07T13:22:37.001Z,95803.00
2022-11-07T13:26:48.200Z,95811.00
2022-11-07T13:31:02.469Z,95820.00
2022-11-07T13:35:11.432Z,95819.00
2022-11-07T13:39:16.576Z,95826.00
2022-11-07T13:43:23.219Z,95817.00
2022-11-07T13:47:31.938Z,95812.00
2022-11-07T13:51:38.250Z,95816.00
2022-11-07T13:55:47.343Z,95812.00
2022-11-07T13:59:55.952Z,95821.00
2022-11-07T14:03:58.681Z,95825.00
2022-11-07T14:08:03.129Z,95815.00
2022-11-07T14:12:07.590Z,95811.00
2022-11-07T14:16:20.046Z,95814.00
2022-11-07T14:20:23.101Z,95815.00
2022-11-07T14:24:28.107Z,95817.00
2022-11-07T14:28:35.919Z,95821.00
2022-11-07T14:32:39.276Z,95816.00
2022-11-07T14:36:48.698Z,95817.00
2022-11-07T14:40:52.943Z,95824.00
2022-11-07T14:44:58.397Z,95818.00
2022-11-07T14:49:01.446Z,95815.00
2022-11-07T14:53:08.396Z,95808.00
2022-11-07T14:57:13.605Z,95808.00
2022-11-07T15:01:27.774Z,95805.00
2022-11-07T15:05:32.188Z,95809.00
2022-11-07T15:09:35.590Z,95801.00
2022-11-07T15:13:38.376Z,95802.00
2022-11-07T15:17:46.757Z,95800.00
2022-11-07T15:21:54.629Z,95798.00
2022-11-07T15:26:00.737Z,95801.00
2022-11-07T15:30:05.711Z,95800.00
2022-11-07T15:34:13.053Z,95805.00
2022-11-07T15:38:20.797Z,95804.00
2022-11-07T15:42:23.476Z,95803.00
2022-11-07T15:46:29.575Z,95804.00
2022-11-07T15:50:34.038Z,95805.00
2022-11-07T15:54:36.735Z,95816.00
2022-11-07T15:58:39.437Z,95805.00
2022-11-07T16:02:42.514Z,95806.00
2022-11-07T16:06:47.601Z,95815.00
2022-11-07T16:10:52.725Z,95814.00
2022-11-07T16:14:59.193Z,95810.00
2022-11-07T16:19:02.105Z,95807.00
2022-11-07T16:23:06.241Z,95804.00
2022-11-07T16:27:15.127Z,95806.00
2022-11-07T16:31:17.949Z,95815.00
2022-11-07T16:35:21.050Z,95811.00
2022-11-07T16:39:25.100Z,95813.00
2022-11-07T16:43:27.821Z,95812.00
2022-11-07T16:47:31.333Z,95815.00
2022-11-07T16:51:34.069Z,95816.00
2022-11-07T16:55:38.558Z,95815.00
2022-11-07T16:59:41.630Z,95821.00
2022-11-07T17:03:44.363Z,95806.00
2022-11-07T17:07:47.133Z,95811.00
2022-11-07T17:11:51.244Z,95809.00
2022-11-07T17:15:54.271Z,95811.00
2022-11-07T17:19:57.006Z,95813.00
2022-11-07T17:24:01.628Z,95824.00
2022-11-07T17:28:06.288Z,95813.00
2022-11-07T17:32:08.995Z,95821.00
2022-11-07T17:36:23.507Z,95820.00
2022-11-07T17:40:34.436Z,95816.00
2022-11-07T17:44:38.533Z,95818.00
2022-11-07T17:48:46.174Z,95814.00
2022-11-07T17:52:52.170Z,95814.00
2022-11-07T17:56:54.996Z,95799.00
2022-11-07T18:00:59.419Z,95811.00
2022-11-07T18:05:02.153Z,95808.00
2022-11-07T18:09:06.981Z,95799.00
2022-11-07T18:13:09.751Z,95801.00
2022-11-07T18:17:13.810Z,95798.00
2022-11-07T18:21:16.642Z,95809.00
2022-11-07T18:25:19.658Z,95807.00
2022-11-07T18:29:22.482Z,95792.00
2022-11-07T18:33:26.537Z,95790.00
2022-11-07T18:37:29.243Z,95791.00
2022-11-07T18:41:32.246Z,95797.00
2022-11-07T18:45:34.984Z,95792.00
2022-11-07T18:49:39.166Z,95795.00
2022-11-07T18:53:42.719Z,95791.00
2022-11-07T18:57:45.436Z,95790.00
2022-11-07T19:01:48.319Z,95779.00
2022-11-07T19:05:52.533Z,95785.00
2022-11-07T19:09:55.277Z,95778.00
2022-11-07T19:14:01.266Z,95778.00
2022-11-07T19:18:04.112Z,95782.00
2022-11-07T19:22:08.241Z,95787.00
2022-11-07T19:26:12.834Z,95785.00
2022-11-07T19:30:16.352Z,95781.00
2022-11-07T19:34:20.999Z,95791.00
2022-11-07T19:38:25.035Z,95787.00
2022-11-07T19:42:28.592Z,95785.00
2022-11-07T19:46:31.319Z,95783.00
2022-11-07T19:50:34.075Z,95780.00
2022-11-07T19:54:38.284Z,95777.00
2022-11-07T19:58:42.343Z,95778.00
2022-11-07T20:02:48.031Z,95778.00
2022-11-07T20:06:54.761Z,95787.00
2022-11-07T20:10:58.866Z,95785.00
2022-11-07T20:15:01.599Z,95784.00
2022-11-07T20:19:05.220Z,95780.00
2022-11-07T20:23:08.018Z,95785.00
2022-11-07T20:27:12.107Z,95791.00
2022-11-07T20:31:16.682Z,95790.00
2022-11-07T20:35:19.373Z,95793.00
2022-11-07T20:39:22.134Z,95789.00
2022-11-07T20:43:26.788Z,95787.00
2022-11-07T20:47:29.498Z,95786.00
2022-11-07T20:51:32.502Z,95785.00
2022-11-07T20:55:39.704Z,95784.00
2022-11-07T20:59:45.336Z,95789.00
2022-11-07T21:03:48.173Z,95781.00
2022-11-07T21:07:50.914Z,95777.00
2022-11-07T21:11:54.323Z,95780.00
2022-11-07T21:15:58.473Z,95766.00
2022-11-07T21:20:01.171Z,95773.00
2022-11-07T21:24:04.497Z,95777.00
2022-11-07T21:28:07.890Z,95776.00
2022-11-07T21:32:12.145Z,95781.00
2022-11-07T21:36:18.289Z,95778.00
2022-11-07T21:40:20.994Z,95785.00
2022-11-07T21:44:23.763Z,95786.00
2022-11-07T21:48:27.857Z,95791.00
2022-11-07T21:52:30.622Z,95788.00
2022-11-07T21:56:35.160Z,95795.00
2022-11-07T22:00:39.307Z,95791.00
2022-11-07T22:04:43.548Z,95789.00
2022-11-07T22:08:47.019Z,95788.00
2022-11-07T22:12:50.613Z,95781.00
2022-11-07T22:16:56.033Z,95778.00
2022-11-07T22:21:00.117Z,95786.00
2022-11-07T22:25:02.853Z,95786.00
2022-11-07T22:29:05.567Z,95779.00
2022-11-07T22:33:08.289Z,95767.00
2022-11-07T22:37:12.486Z,95768.00
2022-11-07T22:41:17.886Z,95773.00
2022-11-07T22:45:20.638Z,95764.00
2022-11-07T22:49:23.329Z,95765.00
2022-11-07T22:53:27.475Z,95764.00
2022-11-07T22:57:30.158Z,95756.00
2022-11-07T23:01:35.135Z,95757.00
2022-11-07T23:05:37.956Z,95757.00
2022-11-07T23:09:42.114Z,95754.00
2022-11-07T23:13:44.919Z,95751.00
2022-11-07T23:17:47.597Z,95754.00
2022-11-07T23:21:50.991Z,95745.00
2022-11-07T23:25:55.061Z,95751.00
2022-11-07T23:29:57.790Z,95737.00
2022-11-07T23:34:00.537Z,95738.00
2022-11-07T23:38:03.253Z,95728.00
2022-11-07T23:42:07.457Z,95738.00
2022-11-07T23:46:30.069Z,95733.00
2022-11-07T23:50:50.451Z,95731.00
2022-11-07T23:55:10.735Z,95726.00
2022-11-07T23:59:37.929Z,95726.00
